sensor_id;sensor_type;location;lat;lon;timestamp;temperature;humidity
66871;DHT22;53780;44.998;9.926;2023-07-29T00:00:43;23.88;67.85
66871;DHT22;53780;44.998;9.926;2023-07-29T00:03:47;23.88;67.70
66871;DHT22;53780;44.998;9.926;2023-07-29T00:06:51;23.84;67.71
66871;DHT22;53780;44.998;9.926;2023-07-29T00:09:54;23.82;67.91
66871;DHT22;53780;44.998;9.926;2023-07-29T00:12:58;23.79;68.97
66871;DHT22;53780;44.998;9.926;2023-07-29T00:16:02;23.82;69.26
66871;DHT22;53780;44.998;9.926;2023-07-29T00:19:06;23.79;69.16
66871;DHT22;53780;44.998;9.926;2023-07-29T00:22:10;23.78;69.33
66871;DHT22;53780;44.998;9.926;2023-07-29T00:25:13;23.71;69.64
66871;DHT22;53780;44.998;9.926;2023-07-29T00:28:17;23.68;70.11
66871;DHT22;53780;44.998;9.926;2023-07-29T00:31:22;23.58;70.71
66871;DHT22;53780;44.998;9.926;2023-07-29T00:34:28;23.51;70.75
66871;DHT22;53780;44.998;9.926;2023-07-29T00:37:32;23.47;70.79
66871;DHT22;53780;44.998;9.926;2023-07-29T00:40:36;23.43;71.24
66871;DHT22;53780;44.998;9.926;2023-07-29T00:43:40;23.43;71.37
66871;DHT22;53780;44.998;9.926;2023-07-29T00:46:45;23.47;71.41
66871;DHT22;53780;44.998;9.926;2023-07-29T00:49:51;23.46;71.18
66871;DHT22;53780;44.998;9.926;2023-07-29T00:52:55;23.36;71.04
66871;DHT22;53780;44.998;9.926;2023-07-29T00:56:03;23.31;71.26
66871;DHT22;53780;44.998;9.926;2023-07-29T00:59:07;23.28;70.85
66871;DHT22;53780;44.998;9.926;2023-07-29T01:02:11;23.26;70.75
66871;DHT22;53780;44.998;9.926;2023-07-29T01:05:16;23.27;70.91
66871;DHT22;53780;44.998;9.926;2023-07-29T01:08:28;23.23;71.33
66871;DHT22;53780;44.998;9.926;2023-07-29T01:12:26;23.20;71.52
66871;DHT22;53780;44.998;9.926;2023-07-29T01:15:38;23.14;71.51
66871;DHT22;53780;44.998;9.926;2023-07-29T01:18:38;23.09;71.71
66871;DHT22;53780;44.998;9.926;2023-07-29T01:21:42;23.05;71.96
66871;DHT22;53780;44.998;9.926;2023-07-29T01:24:46;23.09;72.40
66871;DHT22;53780;44.998;9.926;2023-07-29T01:27:51;23.03;72.84
66871;DHT22;53780;44.998;9.926;2023-07-29T01:34:30;23.00;73.53
66871;DHT22;53780;44.998;9.926;2023-07-29T01:37:37;23.03;73.75
66871;DHT22;53780;44.998;9.926;2023-07-29T01:40:42;23.03;73.89
66871;DHT22;53780;44.998;9.926;2023-07-29T01:43:46;23.09;73.65
66871;DHT22;53780;44.998;9.926;2023-07-29T01:46:50;23.16;73.62
66871;DHT22;53780;44.998;9.926;2023-07-29T01:49:54;23.14;73.82
66871;DHT22;53780;44.998;9.926;2023-07-29T01:52:58;23.14;73.80
66871;DHT22;53780;44.998;9.926;2023-07-29T01:56:02;23.17;73.72
66871;DHT22;53780;44.998;9.926;2023-07-29T01:59:06;23.22;73.57
66871;DHT22;53780;44.998;9.926;2023-07-29T02:02:10;23.24;73.53
66871;DHT22;53780;44.998;9.926;2023-07-29T02:05:15;23.24;73.37
66871;DHT22;53780;44.998;9.926;2023-07-29T02:08:19;23.19;72.57
66871;DHT22;53780;44.998;9.926;2023-07-29T02:11:23;23.19;72.44
66871;DHT22;53780;44.998;9.926;2023-07-29T02:14:30;23.14;72.85
66871;DHT22;53780;44.998;9.926;2023-07-29T02:17:36;23.10;73.19
66871;DHT22;53780;44.998;9.926;2023-07-29T02:20:42;23.09;73.24
66871;DHT22;53780;44.998;9.926;2023-07-29T02:23:52;23.10;73.42
66871;DHT22;53780;44.998;9.926;2023-07-29T02:26:56;23.07;73.28
66871;DHT22;53780;44.998;9.926;2023-07-29T02:30:00;23.07;73.38
66871;DHT22;53780;44.998;9.926;2023-07-29T02:33:03;23.06;73.25
66871;DHT22;53780;44.998;9.926;2023-07-29T02:36:07;23.03;73.39
66871;DHT22;53780;44.998;9.926;2023-07-29T02:39:11;23.03;73.27
66871;DHT22;53780;44.998;9.926;2023-07-29T02:42:15;23.02;73.28
66871;DHT22;53780;44.998;9.926;2023-07-29T02:45:18;23.02;73.35
66871;DHT22;53780;44.998;9.926;2023-07-29T02:48:22;23.02;73.41
66871;DHT22;53780;44.998;9.926;2023-07-29T02:51:26;23.02;73.70
66871;DHT22;53780;44.998;9.926;2023-07-29T02:54:30;23.00;73.58
66871;DHT22;53780;44.998;9.926;2023-07-29T02:57:33;23.00;73.55
66871;DHT22;53780;44.998;9.926;2023-07-29T03:00:37;23.02;73.62
66871;DHT22;53780;44.998;9.926;2023-07-29T03:03:42;22.99;73.98
66871;DHT22;53780;44.998;9.926;2023-07-29T03:06:45;23.02;73.81
66871;DHT22;53780;44.998;9.926;2023-07-29T03:09:51;23.00;73.79
66871;DHT22;53780;44.998;9.926;2023-07-29T03:12:55;23.05;73.66
66871;DHT22;53780;44.998;9.926;2023-07-29T03:16:09;22.98;73.45
66871;DHT22;53780;44.998;9.926;2023-07-29T03:19:15;23.00;73.90
66871;DHT22;53780;44.998;9.926;2023-07-29T03:22:20;23.00;73.98
66871;DHT22;53780;44.998;9.926;2023-07-29T03:25:24;23.00;73.99
66871;DHT22;53780;44.998;9.926;2023-07-29T03:28:29;22.99;74.11
66871;DHT22;53780;44.998;9.926;2023-07-29T03:31:33;22.98;74.24
66871;DHT22;53780;44.998;9.926;2023-07-29T03:34:37;22.99;74.40
66871;DHT22;53780;44.998;9.926;2023-07-29T03:37:42;22.99;74.58
66871;DHT22;53780;44.998;9.926;2023-07-29T03:40:46;23.00;74.65
66871;DHT22;53780;44.998;9.926;2023-07-29T03:43:50;22.99;74.63
66871;DHT22;53780;44.998;9.926;2023-07-29T03:46:54;22.96;74.51
66871;DHT22;53780;44.998;9.926;2023-07-29T03:49:59;22.92;74.48
66871;DHT22;53780;44.998;9.926;2023-07-29T03:53:03;22.85;74.74
66871;DHT22;53780;44.998;9.926;2023-07-29T03:56:08;22.84;74.85
66871;DHT22;53780;44.998;9.926;2023-07-29T03:59:11;22.81;75.08
66871;DHT22;53780;44.998;9.926;2023-07-29T04:02:15;22.81;75.34
66871;DHT22;53780;44.998;9.926;2023-07-29T04:05:20;22.79;75.34
66871;DHT22;53780;44.998;9.926;2023-07-29T04:08:25;22.76;75.19
66871;DHT22;53780;44.998;9.926;2023-07-29T04:11:29;22.76;75.33
66871;DHT22;53780;44.998;9.926;2023-07-29T04:14:32;22.78;75.55
66871;DHT22;53780;44.998;9.926;2023-07-29T04:17:36;22.75;75.79
66871;DHT22;53780;44.998;9.926;2023-07-29T04:20:42;22.75;75.67
66871;DHT22;53780;44.998;9.926;2023-07-29T04:23:45;22.76;75.58
66871;DHT22;53780;44.998;9.926;2023-07-29T04:26:49;22.78;75.30
66871;DHT22;53780;44.998;9.926;2023-07-29T04:29:53;22.81;75.57
66871;DHT22;53780;44.998;9.926;2023-07-29T04:32:57;22.81;75.57
66871;DHT22;53780;44.998;9.926;2023-07-29T04:36:00;22.84;75.65
66871;DHT22;53780;44.998;9.926;2023-07-29T04:39:04;22.84;75.62
66871;DHT22;53780;44.998;9.926;2023-07-29T04:42:07;22.88;75.65
66871;DHT22;53780;44.998;9.926;2023-07-29T04:45:12;22.92;75.54
66871;DHT22;53780;44.998;9.926;2023-07-29T04:48:16;22.95;75.28
66871;DHT22;53780;44.998;9.926;2023-07-29T04:51:20;23.05;75.00
66871;DHT22;53780;44.998;9.926;2023-07-29T04:54:23;23.09;74.36
66871;DHT22;53780;44.998;9.926;2023-07-29T04:57:28;23.19;74.13
66871;DHT22;53780;44.998;9.926;2023-07-29T05:00:32;23.33;74.54
66871;DHT22;53780;44.998;9.926;2023-07-29T05:03:37;23.51;73.84
66871;DHT22;53780;44.998;9.926;2023-07-29T05:06:43;23.71;73.28
66871;DHT22;53780;44.998;9.926;2023-07-29T05:09:47;23.84;72.86
66871;DHT22;53780;44.998;9.926;2023-07-29T05:12:51;23.88;72.86
66871;DHT22;53780;44.998;9.926;2023-07-29T05:15:55;23.89;72.70
66871;DHT22;53780;44.998;9.926;2023-07-29T05:18:59;23.89;72.95
66871;DHT22;53780;44.998;9.926;2023-07-29T05:22:03;23.88;73.32
66871;DHT22;53780;44.998;9.926;2023-07-29T05:25:07;23.85;73.18
66871;DHT22;53780;44.998;9.926;2023-07-29T05:28:11;23.85;73.51
66871;DHT22;53780;44.998;9.926;2023-07-29T05:31:15;23.82;74.30
66871;DHT22;53780;44.998;9.926;2023-07-29T05:34:19;23.88;74.03
66871;DHT22;53780;44.998;9.926;2023-07-29T05:37:23;23.88;73.64
66871;DHT22;53780;44.998;9.926;2023-07-29T05:40:27;23.86;73.61
66871;DHT22;53780;44.998;9.926;2023-07-29T05:43:30;23.89;73.73
66871;DHT22;53780;44.998;9.926;2023-07-29T05:46:34;23.94;73.68
66871;DHT22;53780;44.998;9.926;2023-07-29T05:49:38;24.01;73.66
66871;DHT22;53780;44.998;9.926;2023-07-29T05:52:43;24.10;74.66
66871;DHT22;53780;44.998;9.926;2023-07-29T05:55:46;24.20;73.13
66871;DHT22;53780;44.998;9.926;2023-07-29T05:58:50;24.37;73.29
66871;DHT22;53780;44.998;9.926;2023-07-29T06:01:55;24.61;73.51
66871;DHT22;53780;44.998;9.926;2023-07-29T06:04:58;24.92;73.06
66871;DHT22;53780;44.998;9.926;2023-07-29T06:08:04;25.29;71.89
66871;DHT22;53780;44.998;9.926;2023-07-29T06:11:07;25.73;70.79
66871;DHT22;53780;44.998;9.926;2023-07-29T06:14:11;26.26;68.89
66871;DHT22;53780;44.998;9.926;2023-07-29T06:17:15;26.61;67.32
66871;DHT22;53780;44.998;9.926;2023-07-29T06:20:19;26.76;65.97
66871;DHT22;53780;44.998;9.926;2023-07-29T06:23:23;26.86;66.25
66871;DHT22;53780;44.998;9.926;2023-07-29T06:26:26;27.18;65.09
66871;DHT22;53780;44.998;9.926;2023-07-29T06:29:30;27.74;64.98
66871;DHT22;53780;44.998;9.926;2023-07-29T06:32:34;28.29;63.03
66871;DHT22;53780;44.998;9.926;2023-07-29T06:35:38;28.72;59.94
66871;DHT22;53780;44.998;9.926;2023-07-29T06:38:41;29.26;59.21
66871;DHT22;53780;44.998;9.926;2023-07-29T06:41:45;29.82;56.55
66871;DHT22;53780;44.998;9.926;2023-07-29T06:44:50;30.21;55.77
66871;DHT22;53780;44.998;9.926;2023-07-29T06:47:54;30.51;55.07
66871;DHT22;53780;44.998;9.926;2023-07-29T06:50:58;30.91;55.14
66871;DHT22;53780;44.998;9.926;2023-07-29T06:54:03;31.18;54.39
66871;DHT22;53780;44.998;9.926;2023-07-29T06:57:07;31.51;53.93
66871;DHT22;53780;44.998;9.926;2023-07-29T07:00:11;32.01;52.63
66871;DHT22;53780;44.998;9.926;2023-07-29T07:03:15;32.35;51.93
66871;DHT22;53780;44.998;9.926;2023-07-29T07:06:18;32.64;51.79
66871;DHT22;53780;44.998;9.926;2023-07-29T07:09:22;32.92;51.22
66871;DHT22;53780;44.998;9.926;2023-07-29T07:12:26;33.14;50.85
66871;DHT22;53780;44.998;9.926;2023-07-29T07:15:30;33.22;50.08
66871;DHT22;53780;44.998;9.926;2023-07-29T07:18:35;33.45;50.03
66871;DHT22;53780;44.998;9.926;2023-07-29T07:21:39;33.68;49.72
66871;DHT22;53780;44.998;9.926;2023-07-29T07:24:44;33.98;49.42
66871;DHT22;53780;44.998;9.926;2023-07-29T07:27:47;34.14;48.71
66871;DHT22;53780;44.998;9.926;2023-07-29T07:30:52;34.37;47.75
66871;DHT22;53780;44.998;9.926;2023-07-29T07:33:55;34.47;48.55
66871;DHT22;53780;44.998;9.926;2023-07-29T07:36:59;34.58;46.72
66871;DHT22;53780;44.998;9.926;2023-07-29T07:40:04;34.45;47.88
66871;DHT22;53780;44.998;9.926;2023-07-29T07:43:08;34.25;49.15
66871;DHT22;53780;44.998;9.926;2023-07-29T07:46:12;34.00;48.26
66871;DHT22;53780;44.998;9.926;2023-07-29T07:49:16;33.68;49.23
66871;DHT22;53780;44.998;9.926;2023-07-29T07:52:20;33.24;49.52
66871;DHT22;53780;44.998;9.926;2023-07-29T07:55:24;33.26;49.27
66871;DHT22;53780;44.998;9.926;2023-07-29T07:58:27;33.32;49.72
66871;DHT22;53780;44.998;9.926;2023-07-29T08:01:35;33.35;50.05
66871;DHT22;53780;44.998;9.926;2023-07-29T08:04:39;33.48;49.45
66871;DHT22;53780;44.998;9.926;2023-07-29T08:07:43;33.96;48.36
66871;DHT22;53780;44.998;9.926;2023-07-29T08:10:47;34.48;47.02
66871;DHT22;53780;44.998;9.926;2023-07-29T08:13:51;34.61;46.36
66871;DHT22;53780;44.998;9.926;2023-07-29T08:16:55;35.04;45.42
66871;DHT22;53780;44.998;9.926;2023-07-29T08:19:58;35.04;45.01
66871;DHT22;53780;44.998;9.926;2023-07-29T08:23:02;35.24;44.32
66871;DHT22;53780;44.998;9.926;2023-07-29T08:26:06;35.53;43.68
66871;DHT22;53780;44.998;9.926;2023-07-29T08:29:10;35.68;44.89
66871;DHT22;53780;44.998;9.926;2023-07-29T08:32:13;35.89;43.90
66871;DHT22;53780;44.998;9.926;2023-07-29T08:35:17;36.22;43.59
66871;DHT22;53780;44.998;9.926;2023-07-29T08:38:21;36.64;42.16
66871;DHT22;53780;44.998;9.926;2023-07-29T08:41:30;37.02;42.39
66871;DHT22;53780;44.998;9.926;2023-07-29T08:44:44;37.03;42.57
66871;DHT22;53780;44.998;9.926;2023-07-29T08:47:50;37.09;44.13
66871;DHT22;53780;44.998;9.926;2023-07-29T08:50:57;37.33;42.68
66871;DHT22;53780;44.998;9.926;2023-07-29T08:54:03;37.47;43.58
66871;DHT22;53780;44.998;9.926;2023-07-29T08:57:07;37.45;43.10
66871;DHT22;53780;44.998;9.926;2023-07-29T09:00:11;37.66;41.05
66871;DHT22;53780;44.998;9.926;2023-07-29T09:03:16;37.74;41.88
66871;DHT22;53780;44.998;9.926;2023-07-29T09:06:20;37.93;43.03
66871;DHT22;53780;44.998;9.926;2023-07-29T09:09:25;38.07;41.74
66871;DHT22;53780;44.998;9.926;2023-07-29T09:12:29;38.17;41.36
66871;DHT22;53780;44.998;9.926;2023-07-29T09:15:36;38.25;41.64
66871;DHT22;53780;44.998;9.926;2023-07-29T09:18:41;38.36;40.91
66871;DHT22;53780;44.998;9.926;2023-07-29T09:21:46;38.32;41.31
66871;DHT22;53780;44.998;9.926;2023-07-29T09:24:51;38.42;41.42
66871;DHT22;53780;44.998;9.926;2023-07-29T09:27:59;38.07;39.60
66871;DHT22;53780;44.998;9.926;2023-07-29T09:31:06;38.15;40.15
66871;DHT22;53780;44.998;9.926;2023-07-29T09:34:15;38.12;38.83
66871;DHT22;53780;44.998;9.926;2023-07-29T09:37:23;38.14;39.22
66871;DHT22;53780;44.998;9.926;2023-07-29T09:40:27;37.94;39.79
66871;DHT22;53780;44.998;9.926;2023-07-29T09:43:32;37.73;39.87
66871;DHT22;53780;44.998;9.926;2023-07-29T09:46:37;37.90;40.78
66871;DHT22;53780;44.998;9.926;2023-07-29T09:49:41;38.18;39.81
66871;DHT22;53780;44.998;9.926;2023-07-29T09:52:46;37.95;38.84
66871;DHT22;53780;44.998;9.926;2023-07-29T09:55:53;37.91;40.87
66871;DHT22;53780;44.998;9.926;2023-07-29T09:58:57;38.11;39.82
66871;DHT22;53780;44.998;9.926;2023-07-29T10:02:00;38.14;40.04
66871;DHT22;53780;44.998;9.926;2023-07-29T10:05:05;38.27;40.25
66871;DHT22;53780;44.998;9.926;2023-07-29T10:08:10;38.42;41.00
66871;DHT22;53780;44.998;9.926;2023-07-29T10:11:14;38.55;39.57
66871;DHT22;53780;44.998;9.926;2023-07-29T10:14:19;38.52;38.70
66871;DHT22;53780;44.998;9.926;2023-07-29T10:17:24;38.44;39.56
66871;DHT22;53780;44.998;9.926;2023-07-29T10:20:30;38.18;39.72
66871;DHT22;53780;44.998;9.926;2023-07-29T10:23:38;38.14;40.76
66871;DHT22;53780;44.998;9.926;2023-07-29T10:26:46;38.17;41.59
66871;DHT22;53780;44.998;9.926;2023-07-29T10:29:52;38.11;40.88
66871;DHT22;53780;44.998;9.926;2023-07-29T10:33:05;37.95;40.26
66871;DHT22;53780;44.998;9.926;2023-07-29T10:36:09;37.94;41.39
66871;DHT22;53780;44.998;9.926;2023-07-29T10:39:13;37.93;41.98
66871;DHT22;53780;44.998;9.926;2023-07-29T10:42:17;37.88;39.10
66871;DHT22;53780;44.998;9.926;2023-07-29T10:45:21;37.59;40.49
66871;DHT22;53780;44.998;9.926;2023-07-29T10:51:40;37.22;39.64
66871;DHT22;53780;44.998;9.926;2023-07-29T10:54:46;37.21;40.37
66871;DHT22;53780;44.998;9.926;2023-07-29T10:57:49;37.25;40.03
66871;DHT22;53780;44.998;9.926;2023-07-29T11:00:54;37.12;40.09
66871;DHT22;53780;44.998;9.926;2023-07-29T11:07:27;36.98;41.52
66871;DHT22;53780;44.998;9.926;2023-07-29T11:10:43;36.98;40.52
66871;DHT22;53780;44.998;9.926;2023-07-29T11:13:48;36.71;40.69
66871;DHT22;53780;44.998;9.926;2023-07-29T11:16:52;36.68;41.70
66871;DHT22;53780;44.998;9.926;2023-07-29T11:20:02;36.57;41.35
66871;DHT22;53780;44.998;9.926;2023-07-29T11:23:07;36.40;41.25
66871;DHT22;53780;44.998;9.926;2023-07-29T11:26:11;36.37;43.25
66871;DHT22;53780;44.998;9.926;2023-07-29T11:29:16;36.46;42.49
66871;DHT22;53780;44.998;9.926;2023-07-29T11:32:19;36.47;42.08
66871;DHT22;53780;44.998;9.926;2023-07-29T11:35:23;36.47;43.85
66871;DHT22;53780;44.998;9.926;2023-07-29T11:38:27;36.36;43.36
66871;DHT22;53780;44.998;9.926;2023-07-29T11:41:33;36.10;43.91
66871;DHT22;53780;44.998;9.926;2023-07-29T11:44:37;35.84;42.19
66871;DHT22;53780;44.998;9.926;2023-07-29T11:47:40;35.51;43.61
66871;DHT22;53780;44.998;9.926;2023-07-29T11:50:45;35.34;43.87
66871;DHT22;53780;44.998;9.926;2023-07-29T11:53:49;35.07;43.95
66871;DHT22;53780;44.998;9.926;2023-07-29T11:56:53;35.04;44.60
66871;DHT22;53780;44.998;9.926;2023-07-29T11:59:57;34.85;45.04
66871;DHT22;53780;44.998;9.926;2023-07-29T12:03:01;34.78;46.67
66871;DHT22;53780;44.998;9.926;2023-07-29T12:06:05;34.69;46.01
66871;DHT22;53780;44.998;9.926;2023-07-29T12:09:10;34.61;45.65
66871;DHT22;53780;44.998;9.926;2023-07-29T12:12:14;34.52;45.57
66871;DHT22;53780;44.998;9.926;2023-07-29T12:15:29;34.34;45.05
66871;DHT22;53780;44.998;9.926;2023-07-29T12:18:33;34.28;45.51
66871;DHT22;53780;44.998;9.926;2023-07-29T12:21:37;34.17;45.99
66871;DHT22;53780;44.998;9.926;2023-07-29T12:24:41;34.11;46.79
66871;DHT22;53780;44.998;9.926;2023-07-29T12:27:44;34.10;48.61
66871;DHT22;53780;44.998;9.926;2023-07-29T12:30:56;34.06;48.71
66871;DHT22;53780;44.998;9.926;2023-07-29T12:33:59;34.00;46.45
66871;DHT22;53780;44.998;9.926;2023-07-29T12:37:04;33.76;46.33
66871;DHT22;53780;44.998;9.926;2023-07-29T12:40:23;33.68;47.10
66871;DHT22;53780;44.998;9.926;2023-07-29T12:43:27;33.65;46.61
66871;DHT22;53780;44.998;9.926;2023-07-29T12:46:31;33.60;48.67
66871;DHT22;53780;44.998;9.926;2023-07-29T12:49:36;33.56;49.32
66871;DHT22;53780;44.998;9.926;2023-07-29T12:52:40;33.48;47.82
66871;DHT22;53780;44.998;9.926;2023-07-29T12:55:43;33.41;47.25
66871;DHT22;53780;44.998;9.926;2023-07-29T12:58:47;33.29;47.19
66871;DHT22;53780;44.998;9.926;2023-07-29T13:01:51;33.24;49.04
66871;DHT22;53780;44.998;9.926;2023-07-29T13:04:54;33.12;48.95
66871;DHT22;53780;44.998;9.926;2023-07-29T13:07:58;33.08;49.33
66871;DHT22;53780;44.998;9.926;2023-07-29T13:11:03;32.95;49.16
66871;DHT22;53780;44.998;9.926;2023-07-29T13:14:07;32.90;49.23
66871;DHT22;53780;44.998;9.926;2023-07-29T13:17:11;32.83;50.46
66871;DHT22;53780;44.998;9.926;2023-07-29T13:20:15;32.81;50.35
66871;DHT22;53780;44.998;9.926;2023-07-29T13:23:19;32.73;49.91
66871;DHT22;53780;44.998;9.926;2023-07-29T13:26:23;32.67;50.96
66871;DHT22;53780;44.998;9.926;2023-07-29T13:29:26;32.61;50.37
66871;DHT22;53780;44.998;9.926;2023-07-29T13:32:30;32.56;50.79
66871;DHT22;53780;44.998;9.926;2023-07-29T13:35:34;32.49;50.99
66871;DHT22;53780;44.998;9.926;2023-07-29T13:38:38;32.48;50.41
66871;DHT22;53780;44.998;9.926;2023-07-29T13:41:41;32.44;50.31
66871;DHT22;53780;44.998;9.926;2023-07-29T13:44:45;32.40;51.06
66871;DHT22;53780;44.998;9.926;2023-07-29T13:47:51;32.39;51.61
66871;DHT22;53780;44.998;9.926;2023-07-29T13:50:55;32.36;51.78
66871;DHT22;53780;44.998;9.926;2023-07-29T13:54:01;32.32;52.10
66871;DHT22;53780;44.998;9.926;2023-07-29T13:57:06;32.31;51.84
66871;DHT22;53780;44.998;9.926;2023-07-29T14:00:10;32.28;52.63
66871;DHT22;53780;44.998;9.926;2023-07-29T14:03:17;32.25;52.82
66871;DHT22;53780;44.998;9.926;2023-07-29T14:06:21;32.19;49.98
66871;DHT22;53780;44.998;9.926;2023-07-29T14:09:26;32.15;52.37
66871;DHT22;53780;44.998;9.926;2023-07-29T14:12:29;32.11;52.63
66871;DHT22;53780;44.998;9.926;2023-07-29T14:15:33;32.09;52.20
66871;DHT22;53780;44.998;9.926;2023-07-29T14:18:37;32.11;50.55
66871;DHT22;53780;44.998;9.926;2023-07-29T14:21:41;32.05;52.58
66871;DHT22;53780;44.998;9.926;2023-07-29T14:24:44;32.01;52.62
66871;DHT22;53780;44.998;9.926;2023-07-29T14:27:48;32.01;52.42
66871;DHT22;53780;44.998;9.926;2023-07-29T14:30:52;31.96;52.06
66871;DHT22;53780;44.998;9.926;2023-07-29T14:33:56;31.96;52.54
66871;DHT22;53780;44.998;9.926;2023-07-29T14:36:59;31.94;52.77
66871;DHT22;53780;44.998;9.926;2023-07-29T14:40:04;31.94;53.52
66871;DHT22;53780;44.998;9.926;2023-07-29T14:43:08;31.98;52.39
66871;DHT22;53780;44.998;9.926;2023-07-29T14:46:12;32.01;51.26
66871;DHT22;53780;44.998;9.926;2023-07-29T14:49:15;31.98;52.59
66871;DHT22;53780;44.998;9.926;2023-07-29T14:52:19;31.98;53.14
66871;DHT22;53780;44.998;9.926;2023-07-29T14:55:22;31.95;52.70
66871;DHT22;53780;44.998;9.926;2023-07-29T14:58:26;31.89;52.28
66871;DHT22;53780;44.998;9.926;2023-07-29T15:01:31;31.87;53.37
66871;DHT22;53780;44.998;9.926;2023-07-29T15:04:35;31.88;54.21
66871;DHT22;53780;44.998;9.926;2023-07-29T15:07:38;31.84;54.05
66871;DHT22;53780;44.998;9.926;2023-07-29T15:10:47;31.82;54.52
66871;DHT22;53780;44.998;9.926;2023-07-29T15:13:51;31.77;51.61
66871;DHT22;53780;44.998;9.926;2023-07-29T15:16:55;31.74;51.46
66871;DHT22;53780;44.998;9.926;2023-07-29T15:19:58;31.75;52.30
66871;DHT22;53780;44.998;9.926;2023-07-29T15:23:02;31.78;51.82
66871;DHT22;53780;44.998;9.926;2023-07-29T15:26:06;31.75;51.99
66871;DHT22;53780;44.998;9.926;2023-07-29T15:29:10;31.71;52.56
66871;DHT22;53780;44.998;9.926;2023-07-29T15:32:14;31.67;53.16
66871;DHT22;53780;44.998;9.926;2023-07-29T15:35:18;31.64;53.03
66871;DHT22;53780;44.998;9.926;2023-07-29T15:38:21;31.61;52.08
66871;DHT22;53780;44.998;9.926;2023-07-29T15:41:25;31.57;52.05
66871;DHT22;53780;44.998;9.926;2023-07-29T15:44:29;31.51;52.29
66871;DHT22;53780;44.998;9.926;2023-07-29T15:47:33;31.43;52.93
66871;DHT22;53780;44.998;9.926;2023-07-29T15:50:36;31.44;52.98
66871;DHT22;53780;44.998;9.926;2023-07-29T15:53:40;31.44;52.77
66871;DHT22;53780;44.998;9.926;2023-07-29T15:56:44;31.39;52.93
66871;DHT22;53780;44.998;9.926;2023-07-29T15:59:48;31.37;53.43
66871;DHT22;53780;44.998;9.926;2023-07-29T16:02:52;31.34;52.87
66871;DHT22;53780;44.998;9.926;2023-07-29T16:05:56;31.37;53.14
66871;DHT22;53780;44.998;9.926;2023-07-29T16:09:00;31.37;53.00
66871;DHT22;53780;44.998;9.926;2023-07-29T16:12:09;31.31;53.29
66871;DHT22;53780;44.998;9.926;2023-07-29T16:15:13;31.30;53.74
66871;DHT22;53780;44.998;9.926;2023-07-29T16:18:19;31.27;54.75
66871;DHT22;53780;44.998;9.926;2023-07-29T16:21:22;31.26;55.45
66871;DHT22;53780;44.998;9.926;2023-07-29T16:24:26;31.23;54.18
66871;DHT22;53780;44.998;9.926;2023-07-29T16:27:30;31.25;54.74
66871;DHT22;53780;44.998;9.926;2023-07-29T16:30:35;31.19;54.92
66871;DHT22;53780;44.998;9.926;2023-07-29T16:33:39;31.18;55.42
66871;DHT22;53780;44.998;9.926;2023-07-29T16:36:43;31.16;55.50
66871;DHT22;53780;44.998;9.926;2023-07-29T16:39:47;31.12;55.20
66871;DHT22;53780;44.998;9.926;2023-07-29T16:42:51;31.12;54.30
66871;DHT22;53780;44.998;9.926;2023-07-29T16:45:54;31.06;54.78
66871;DHT22;53780;44.998;9.926;2023-07-29T16:48:58;31.02;55.90
66871;DHT22;53780;44.998;9.926;2023-07-29T16:52:02;30.95;54.91
66871;DHT22;53780;44.998;9.926;2023-07-29T16:55:06;30.95;54.31
66871;DHT22;53780;44.998;9.926;2023-07-29T16:58:10;30.92;55.13
66871;DHT22;53780;44.998;9.926;2023-07-29T17:01:14;30.92;55.12
66871;DHT22;53780;44.998;9.926;2023-07-29T17:04:18;30.89;55.59
66871;DHT22;53780;44.998;9.926;2023-07-29T17:07:22;30.88;55.47
66871;DHT22;53780;44.998;9.926;2023-07-29T17:10:25;30.88;55.89
66871;DHT22;53780;44.998;9.926;2023-07-29T17:13:29;30.88;56.67
66871;DHT22;53780;44.998;9.926;2023-07-29T17:16:33;30.85;56.22
66871;DHT22;53780;44.998;9.926;2023-07-29T17:19:37;30.81;56.48
66871;DHT22;53780;44.998;9.926;2023-07-29T17:22:41;30.81;56.50
66871;DHT22;53780;44.998;9.926;2023-07-29T17:25:44;30.78;56.96
66871;DHT22;53780;44.998;9.926;2023-07-29T17:28:48;30.78;56.74
66871;DHT22;53780;44.998;9.926;2023-07-29T17:31:52;30.75;57.68
66871;DHT22;53780;44.998;9.926;2023-07-29T17:34:56;30.72;58.08
66871;DHT22;53780;44.998;9.926;2023-07-29T17:37:59;30.68;57.74
66871;DHT22;53780;44.998;9.926;2023-07-29T17:41:05;30.69;58.02
66871;DHT22;53780;44.998;9.926;2023-07-29T17:44:08;30.61;57.93
66871;DHT22;53780;44.998;9.926;2023-07-29T17:47:12;30.60;58.15
66871;DHT22;53780;44.998;9.926;2023-07-29T17:50:18;30.51;57.96
66871;DHT22;53780;44.998;9.926;2023-07-29T17:53:25;30.48;58.19
66871;DHT22;53780;44.998;9.926;2023-07-29T17:56:29;30.45;58.21
66871;DHT22;53780;44.998;9.926;2023-07-29T17:59:32;30.40;58.51
66871;DHT22;53780;44.998;9.926;2023-07-29T18:02:36;30.36;58.70
66871;DHT22;53780;44.998;9.926;2023-07-29T18:05:40;30.27;58.68
66871;DHT22;53780;44.998;9.926;2023-07-29T18:08:44;30.14;57.03
66871;DHT22;53780;44.998;9.926;2023-07-29T18:11:48;29.89;57.96
66871;DHT22;53780;44.998;9.926;2023-07-29T18:14:52;29.69;59.35
66871;DHT22;53780;44.998;9.926;2023-07-29T18:17:56;29.55;60.06
66871;DHT22;53780;44.998;9.926;2023-07-29T18:21:00;29.43;60.38
66871;DHT22;53780;44.998;9.926;2023-07-29T18:24:04;29.34;59.89
66871;DHT22;53780;44.998;9.926;2023-07-29T18:27:08;29.27;60.06
66871;DHT22;53780;44.998;9.926;2023-07-29T18:30:13;29.21;60.30
66871;DHT22;53780;44.998;9.926;2023-07-29T18:33:19;29.14;60.58
66871;DHT22;53780;44.998;9.926;2023-07-29T18:36:22;29.11;61.85
66871;DHT22;53780;44.998;9.926;2023-07-29T18:39:26;29.04;61.60
66871;DHT22;53780;44.998;9.926;2023-07-29T18:42:30;29.02;61.11
66871;DHT22;53780;44.998;9.926;2023-07-29T18:45:34;28.95;61.41
66871;DHT22;53780;44.998;9.926;2023-07-29T18:48:37;28.90;61.66
66871;DHT22;53780;44.998;9.926;2023-07-29T18:51:41;28.86;61.22
66871;DHT22;53780;44.998;9.926;2023-07-29T18:54:45;28.79;61.23
66871;DHT22;53780;44.998;9.926;2023-07-29T18:57:49;28.76;61.49
66871;DHT22;53780;44.998;9.926;2023-07-29T19:00:53;28.76;61.68
66871;DHT22;53780;44.998;9.926;2023-07-29T19:03:56;28.72;61.66
66871;DHT22;53780;44.998;9.926;2023-07-29T19:07:00;28.66;61.81
66871;DHT22;53780;44.998;9.926;2023-07-29T19:10:04;28.66;62.50
66871;DHT22;53780;44.998;9.926;2023-07-29T19:13:08;28.66;63.22
66871;DHT22;53780;44.998;9.926;2023-07-29T19:16:12;28.59;63.76
66871;DHT22;53780;44.998;9.926;2023-07-29T19:19:15;28.47;64.00
66871;DHT22;53780;44.998;9.926;2023-07-29T19:22:19;28.35;63.91
66871;DHT22;53780;44.998;9.926;2023-07-29T19:25:23;28.35;64.12
66871;DHT22;53780;44.998;9.926;2023-07-29T19:28:27;28.38;63.96
66871;DHT22;53780;44.998;9.926;2023-07-29T19:31:30;28.40;63.49
66871;DHT22;53780;44.998;9.926;2023-07-29T19:34:34;28.35;63.50